Plainview, New York
Current Conditions -  °F | °C
As of 3:53 PM on Monday 24 Nov 2014 (Local Time) from KFRG Reporting Station
Few Clouds Few Clouds  
Wind Chill: 60°   Ceiling: Unl
Heat Index: 60°   Visibility: 9mi
Dew Point: 56°   Wind: 20mph
Humidity: 86%   Direction: 210°SSW
Pressure: 29.62"   Gusts: NA
Location:  40.78°N, 73.47°W
Report Text: KFRG 242053Z 21017KT 9SM FEW004 16/13 A2962 RMK AO2 SLP028 T01560133 55002
Loading
Personal Weather Stations






























Interactive Weather Map New forecast layout! Learn more

10-Day Weather Forecast

Advertisements
Track Severe Weather on mobile